Time;durP1;ratioP1;P1;durP2;ratioP2;P2;SDS_P1;SDS_P2;PMS_P1;PMS_P2;Temp;Humidity;BMP_temperature;BMP_pressure;BME280_temperature;BME280_humidity;BME280_pressure;Samples;Min_cycle;Max_cycle;Signal;HPM_P1;HPM_P2
2023/06/16 00:00:03;;;;;;;5.30;4.80;;;16.10;99.90;;;;;;4986820;28;20191;-41
2023/06/16 00:02:43;;;;;;;4.97;4.47;;;16.10;99.90;;;;;;5011283;28;20191;-43
2023/06/16 00:05:11;;;;;;;5.00;4.60;;;16.00;99.90;;;;;;5001241;28;20196;-43
2023/06/16 00:07:37;;;;;;;6.33;4.87;;;16.00;99.90;;;;;;4989160;28;20247;-42
2023/06/16 00:10:07;;;;;;;5.40;4.90;;;16.00;99.90;;;;;;4995938;28;20275;-40
2023/06/16 00:12:35;;;;;;;5.43;4.93;;;16.10;99.90;;;;;;4987565;28;20251;-42
2023/06/16 00:15:02;;;;;;;7.10;4.63;;;16.10;99.90;;;;;;4992420;28;20184;-42
2023/06/16 00:17:28;;;;;;;5.33;4.87;;;16.10;99.90;;;;;;5006647;28;20206;-42
2023/06/16 00:19:57;;;;;;;5.07;4.63;;;16.10;99.90;;;;;;5010111;28;20206;-39
2023/06/16 00:22:25;;;;;;;5.50;4.50;;;16.10;99.90;;;;;;4989840;28;20202;-37
2023/06/16 00:24:54;;;;;;;6.77;4.53;;;16.20;99.90;;;;;;4993607;28;20191;-35
2023/06/16 00:27:23;;;;;;;5.67;5.17;;;16.20;99.90;;;;;;4986193;28;20207;-40
2023/06/16 00:29:49;;;;;;;5.40;4.90;;;16.20;99.90;;;;;;5007287;28;20196;-35
2023/06/16 00:32:16;;;;;;;5.63;4.80;;;16.30;99.90;;;;;;4994163;28;20251;-38
2023/06/16 00:34:42;;;;;;;6.17;4.87;;;16.40;99.90;;;;;;4989734;28;20621;-38
2023/06/16 00:37:09;;;;;;;4.57;4.17;;;16.40;99.90;;;;;;4994828;28;20226;-41
2023/06/16 00:39:35;;;;;;;6.00;4.57;;;16.40;99.90;;;;;;4985797;28;20222;-34
2023/06/16 00:42:04;;;;;;;4.97;4.57;;;16.40;99.90;;;;;;5002646;28;20184;-35
2023/06/16 00:44:30;;;;;;;6.80;4.90;;;16.30;99.90;;;;;;4995336;28;20203;-38
2023/06/16 00:46:56;;;;;;;5.23;4.80;;;16.30;99.90;;;;;;4993724;28;20219;-36
2023/06/16 00:49:23;;;;;;;5.57;4.37;;;16.10;99.90;;;;;;4995394;28;20191;-41
2023/06/16 00:51:49;;;;;;;5.43;4.93;;;16.10;99.90;;;;;;4985776;28;20238;-36
2023/06/16 00:54:16;;;;;;;5.13;4.63;;;16.00;99.90;;;;;;4999155;28;20187;-39
2023/06/16 00:56:43;;;;;;;5.87;4.50;;;16.00;99.90;;;;;;5002116;28;20208;-35
2023/06/16 00:59:09;;;;;;;6.13;5.00;;;15.90;99.90;;;;;;4983335;28;20258;-35
2023/06/16 01:01:38;;;;;;;5.00;4.50;;;15.90;99.90;;;;;;4985176;28;20238;-38
2023/06/16 01:04:04;;;;;;;5.87;5.37;;;15.90;99.90;;;;;;5008481;28;20184;-37
2023/06/16 01:06:41;;;;;;;4.97;4.57;;;15.90;99.90;;;;;;4991601;28;20226;-43
2023/06/16 01:09:21;;;;;;;5.90;5.23;;;15.90;99.90;;;;;;5002325;28;20216;-40
2023/06/16 01:11:52;;;;;;;7.50;5.50;;;15.90;99.90;;;;;;4991995;28;20208;-34
2023/06/16 01:14:28;;;;;;;5.93;5.33;;;15.90;99.90;;;;;;4995316;28;20179;-37
2023/06/16 01:16:57;;;;;;;5.53;4.93;;;15.90;99.90;;;;;;4992753;28;20235;-36
2023/06/16 01:19:28;;;;;;;6.87;5.30;;;15.90;99.90;;;;;;4981808;28;20199;-36
2023/06/16 01:22:08;;;;;;;5.97;5.00;;;15.80;99.90;;;;;;5008567;28;20196;-38
2023/06/16 01:24:35;;;;;;;5.23;4.73;;;15.80;99.90;;;;;;5023932;28;20249;-39
2023/06/16 01:27:04;;;;;;;7.30;4.93;;;15.80;99.90;;;;;;4998848;28;20207;-35
2023/06/16 01:29:36;;;;;;;5.50;5.00;;;15.80;99.90;;;;;;4993278;28;20195;-40
2023/06/16 01:32:05;;;;;;;6.20;5.70;;;15.80;99.90;;;;;;4994063;28;20281;-37
2023/06/16 01:34:34;;;;;;;6.47;5.33;;;15.90;99.90;;;;;;4980029;28;20183;-35
2023/06/16 01:37:01;;;;;;;7.00;5.50;;;15.80;99.90;;;;;;4990160;28;20238;-37
2023/06/16 01:39:29;;;;;;;5.97;5.47;;;15.70;99.90;;;;;;4991874;28;20187;-33
2023/06/16 01:41:56;;;;;;;6.90;5.47;;;15.70;99.90;;;;;;5004697;28;20187;-36
2023/06/16 01:44:22;;;;;;;6.07;5.57;;;15.70;99.90;;;;;;4989101;28;20191;-36
2023/06/16 01:46:50;;;;;;;6.40;5.73;;;15.60;99.90;;;;;;4986637;28;20234;-37
2023/06/16 01:49:16;;;;;;;6.00;5.50;;;15.60;99.90;;;;;;4981376;28;20175;-34
2023/06/16 01:51:42;;;;;;;6.00;5.40;;;15.60;99.90;;;;;;5007374;28;20203;-37
2023/06/16 01:54:08;;;;;;;5.80;5.20;;;15.50;99.90;;;;;;5006711;28;20183;-40
2023/06/16 01:56:36;;;;;;;6.07;5.50;;;15.50;99.90;;;;;;4996975;28;20200;-34
2023/06/16 01:59:03;;;;;;;6.03;5.50;;;15.50;99.90;;;;;;5008653;28;20191;-36
2023/06/16 02:01:49;;;;;;;5.80;5.30;;;15.50;99.90;;;;;;5009343;28;20278;-38
2023/06/16 02:04:19;;;;;;;8.80;5.63;;;15.50;99.90;;;;;;5007934;28;20190;-36
2023/06/16 02:06:57;;;;;;;5.73;5.23;;;15.50;99.90;;;;;;4987581;28;20215;-41
2023/06/16 02:09:24;;;;;;;6.03;5.53;;;15.40;99.90;;;;;;4983336;28;20187;-37
2023/06/16 02:11:52;;;;;;;6.20;5.60;;;15.30;99.90;;;;;;5008747;28;20203;-41
2023/06/16 02:14:20;;;;;;;6.40;5.10;;;15.30;99.90;;;;;;4982877;28;20175;-38
2023/06/16 02:16:46;;;;;;;5.33;4.87;;;15.30;99.90;;;;;;4993133;28;20195;-38
2023/06/16 02:19:14;;;;;;;5.90;5.40;;;15.30;99.90;;;;;;5010307;28;20183;-38
2023/06/16 02:21:43;;;;;;;6.03;5.50;;;15.30;99.90;;;;;;4993658;28;20242;-36
2023/06/16 02:24:10;;;;;;;5.70;5.20;;;15.20;99.90;;;;;;4989290;28;20180;-36
2023/06/16 02:26:37;;;;;;;6.30;5.70;;;15.20;99.90;;;;;;5004190;28;20274;-38
2023/06/16 02:29:03;;;;;;;6.73;5.43;;;15.20;99.90;;;;;;4989160;28;20230;-36
2023/06/16 02:31:29;;;;;;;5.40;5.00;;;15.10;99.90;;;;;;4980139;28;20211;-38
2023/06/16 02:33:56;;;;;;;6.30;5.70;;;15.10;99.90;;;;;;5005250;28;20175;-36
2023/06/16 02:36:23;;;;;;;6.07;5.57;;;15.00;99.90;;;;;;4993258;28;20210;-37
2023/06/16 02:38:50;;;;;;;6.10;5.60;;;14.90;99.90;;;;;;5009697;28;20183;-36
2023/06/16 02:41:17;;;;;;;6.33;5.73;;;14.80;99.90;;;;;;4993142;28;20232;-35
2023/06/16 02:43:44;;;;;;;6.30;5.80;;;14.80;99.90;;;;;;4983610;28;20184;-36
2023/06/16 02:46:10;;;;;;;6.23;5.53;;;14.70;99.90;;;;;;5001266;28;20200;-35
2023/06/16 02:48:36;;;;;;;6.00;5.40;;;14.70;99.90;;;;;;4991954;28;20187;-37
2023/06/16 02:51:03;;;;;;;6.40;5.80;;;14.70;99.90;;;;;;4986740;28;20211;-37
2023/06/16 02:53:30;;;;;;;6.73;6.00;;;14.60;99.90;;;;;;5001642;28;20196;-38
2023/06/16 02:55:58;;;;;;;7.00;5.73;;;14.60;99.90;;;;;;5008824;28;20685;-38
2023/06/16 02:58:26;;;;;;;6.40;5.83;;;14.50;99.90;;;;;;4993197;28;20186;-40
2023/06/16 03:00:52;;;;;;;6.63;6.03;;;14.50;99.90;;;;;;4984839;28;20270;-38
2023/06/16 03:03:38;;;;;;;6.17;5.57;;;14.50;99.90;;;;;;4999860;28;20180;-38
2023/06/16 03:06:19;;;;;;;6.43;5.83;;;14.50;99.90;;;;;;4991361;28;20281;-37
2023/06/16 03:08:46;;;;;;;6.27;5.67;;;14.50;99.90;;;;;;4989760;28;20184;-35
2023/06/16 03:11:12;;;;;;;6.47;5.87;;;14.40;99.90;;;;;;5006577;28;20211;-42
2023/06/16 03:13:46;;;;;;;6.53;5.93;;;14.40;99.90;;;;;;5009252;28;20189;-41
2023/06/16 03:16:14;;;;;;;6.50;5.90;;;14.30;99.90;;;;;;4984995;28;20227;-42
2023/06/16 03:18:40;;;;;;;6.60;6.00;;;14.30;99.90;;;;;;4985988;28;20215;-42
2023/06/16 03:21:06;;;;;;;8.87;6.13;;;14.30;99.90;;;;;;5006756;28;20285;-43
2023/06/16 03:23:39;;;;;;;6.23;5.63;;;14.30;99.90;;;;;;4982984;28;20220;-42
2023/06/16 03:26:05;;;;;;;6.23;5.57;;;14.30;99.90;;;;;;5003091;28;20299;-42
2023/06/16 03:28:50;;;;;;;5.70;5.07;;;14.30;99.90;;;;;;5009126;28;20214;-41
2023/06/16 03:31:17;;;;;;;6.10;5.60;;;14.20;99.90;;;;;;5009017;28;20203;-40
2023/06/16 03:33:44;;;;;;;6.67;5.97;;;14.20;99.90;;;;;;4978215;28;20183;-41
2023/06/16 03:36:12;;;;;;;5.80;5.20;;;14.10;99.90;;;;;;4999995;28;20198;-42
2023/06/16 03:38:41;;;;;;;6.17;5.60;;;14.10;99.90;;;;;;5009045;28;20190;-42
2023/06/16 03:41:07;;;;;;;6.80;6.20;;;14.10;99.90;;;;;;4991929;28;20229;-42
2023/06/16 03:43:33;;;;;;;7.90;5.40;;;14.10;99.90;;;;;;4989237;28;20224;-42
2023/06/16 03:45:59;;;;;;;6.10;5.50;;;14.10;99.90;;;;;;4990224;28;20187;-41
2023/06/16 03:48:26;;;;;;;9.13;5.90;;;14.00;99.90;;;;;;4992764;28;20192;-42
2023/06/16 03:50:56;;;;;;;5.93;5.30;;;14.00;99.90;;;;;;4982075;28;20205;-39
2023/06/16 03:53:23;;;;;;;6.30;5.70;;;14.00;99.90;;;;;;4997975;28;20196;-38
2023/06/16 03:55:48;;;;;;;6.87;5.67;;;13.80;99.90;;;;;;5007676;28;20659;-35
2023/06/16 03:58:15;;;;;;;5.60;5.10;;;13.90;99.90;;;;;;4980724;28;20205;-37
2023/06/16 04:00:43;;;;;;;8.30;5.83;;;13.90;99.90;;;;;;5006880;28;20194;-36
2023/06/16 04:03:11;;;;;;;7.17;6.13;;;14.00;99.90;;;;;;4994490;28;20211;-34
2023/06/16 04:05:37;;;;;;;6.60;6.00;;;14.00;99.90;;;;;;4995414;28;20223;-36
2023/06/16 04:08:05;;;;;;;6.67;5.97;;;14.00;99.90;;;;;;5005960;28;20209;-34
2023/06/16 04:10:34;;;;;;;8.63;5.90;;;14.00;99.90;;;;;;4982552;28;20222;-36
2023/06/16 04:13:02;;;;;;;6.23;5.67;;;14.10;99.90;;;;;;5020258;28;20274;-37
2023/06/16 04:15:35;;;;;;;6.57;5.90;;;14.10;99.90;;;;;;5000287;28;20253;-35
2023/06/16 04:18:04;;;;;;;6.60;6.00;;;14.10;99.90;;;;;;5000809;28;20214;-36
2023/06/16 04:20:35;;;;;;;6.60;5.97;;;14.20;99.90;;;;;;5016610;28;20281;-35
2023/06/16 04:23:04;;;;;;;7.07;6.37;;;14.20;99.90;;;;;;5011668;28;20191;-35
2023/06/16 04:25:31;;;;;;;7.10;6.30;;;14.30;99.90;;;;;;5010976;28;20655;-37
2023/06/16 04:27:59;;;;;;;7.30;6.13;;;14.30;99.90;;;;;;4994707;28;20199;-34
2023/06/16 04:30:25;;;;;;;6.83;5.90;;;14.40;99.90;;;;;;5010126;28;20182;-33
2023/06/16 04:32:54;;;;;;;7.07;6.17;;;14.40;99.90;;;;;;5012344;28;20179;-38
2023/06/16 04:35:22;;;;;;;6.77;6.03;;;14.40;99.90;;;;;;4990514;28;20234;-36
2023/06/16 04:37:48;;;;;;;7.80;6.13;;;14.40;99.90;;;;;;5008142;28;20227;-39
2023/06/16 04:40:15;;;;;;;7.10;6.20;;;14.40;99.90;;;;;;5011338;28;20183;-34
2023/06/16 04:42:42;;;;;;;7.10;6.40;;;14.50;99.90;;;;;;4979960;28;20191;-36
2023/06/16 04:45:08;;;;;;;7.60;6.57;;;14.50;99.90;;;;;;5008893;28;20194;-35
2023/06/16 04:47:40;;;;;;;6.80;6.20;;;14.50;99.90;;;;;;5006222;28;20669;-35
2023/06/16 04:50:08;;;;;;;7.80;6.13;;;14.60;99.90;;;;;;4991404;28;20274;-35
2023/06/16 04:52:39;;;;;;;7.00;6.07;;;14.70;99.90;;;;;;5003426;28;20235;-36
2023/06/16 04:55:06;;;;;;;8.37;6.17;;;14.80;99.90;;;;;;4994628;28;20191;-35
2023/06/16 04:57:34;;;;;;;6.77;6.07;;;14.90;99.90;;;;;;4991356;28;20211;-34
2023/06/16 05:00:01;;;;;;;8.20;6.37;;;15.00;99.90;;;;;;4992040;28;20275;-40
2023/06/16 05:02:27;;;;;;;6.67;6.07;;;15.00;99.90;;;;;;4991259;28;20663;-39
2023/06/16 05:04:53;;;;;;;7.77;6.40;;;15.10;99.90;;;;;;4994306;28;20194;-36
2023/06/16 05:07:19;;;;;;;6.60;6.00;;;15.10;99.90;;;;;;4991611;28;20278;-39
2023/06/16 05:09:45;;;;;;;10.10;6.93;;;15.20;99.90;;;;;;4991494;28;20187;-36
2023/06/16 05:12:11;;;;;;;6.53;5.93;;;15.20;99.90;;;;;;4991352;28;20211;-38
2023/06/16 05:14:37;;;;;;;8.80;6.70;;;15.20;99.90;;;;;;4991096;28;20287;-37
2023/06/16 05:17:05;;;;;;;7.57;5.97;;;15.30;99.90;;;;;;4978479;28;20212;-35
2023/06/16 05:19:32;;;;;;;8.47;6.20;;;15.40;99.90;;;;;;4987049;28;20180;-40
2023/06/16 05:21:59;;;;;;;7.70;6.90;;;15.40;99.90;;;;;;5000009;28;20180;-38
2023/06/16 05:24:25;;;;;;;7.17;6.30;;;15.50;99.90;;;;;;4994341;28;20249;-39
2023/06/16 05:26:51;;;;;;;7.60;6.77;;;15.50;99.90;;;;;;4994291;28;20206;-40
2023/06/16 05:29:17;;;;;;;9.07;7.00;;;15.50;99.90;;;;;;5003162;28;20184;-36
2023/06/16 05:31:44;;;;;;;7.90;6.60;;;15.60;99.90;;;;;;4979718;28;20207;-37
2023/06/16 05:34:10;;;;;;;6.90;6.20;;;15.80;99.90;;;;;;5010124;28;20179;-35
2023/06/16 05:36:37;;;;;;;7.23;6.30;;;15.90;99.90;;;;;;5007033;28;20200;-39
2023/06/16 05:39:07;;;;;;;6.60;6.00;;;16.00;99.90;;;;;;4995145;28;20187;-37
2023/06/16 05:41:34;;;;;;;7.17;6.57;;;16.10;99.90;;;;;;4994397;28;20402;-39
2023/06/16 05:44:01;;;;;;;7.27;6.07;;;16.20;99.90;;;;;;4986670;28;20250;-34
2023/06/16 05:46:27;;;;;;;8.70;6.70;;;16.30;99.90;;;;;;4990714;28;20282;-39
2023/06/16 05:48:57;;;;;;;7.13;6.53;;;16.40;99.90;;;;;;4988642;28;20264;-38
2023/06/16 05:51:24;;;;;;;7.33;6.63;;;16.50;99.90;;;;;;4990086;28;20266;-39
2023/06/16 05:53:54;;;;;;;7.03;6.33;;;16.70;99.90;;;;;;5001553;28;20179;-37
2023/06/16 05:56:23;;;;;;;7.47;6.73;;;16.80;99.90;;;;;;5011416;28;20254;-35
2023/06/16 05:58:50;;;;;;;6.90;6.30;;;17.00;99.90;;;;;;4977356;28;20200;-41
2023/06/16 06:01:16;;;;;;;7.80;6.97;;;17.00;99.90;;;;;;4998797;28;20188;-37
2023/06/16 06:03:46;;;;;;;7.93;6.30;;;17.10;99.90;;;;;;4991011;28;20197;-37
2023/06/16 06:06:15;;;;;;;8.83;6.37;;;17.20;99.90;;;;;;4978254;28;20233;-37
2023/06/16 06:08:43;;;;;;;6.83;6.13;;;17.30;99.90;;;;;;4992961;28;20274;-35
2023/06/16 06:11:09;;;;;;;7.57;6.80;;;17.40;99.90;;;;;;4990435;28;20294;-35
2023/06/16 06:13:36;;;;;;;7.30;6.43;;;17.50;99.90;;;;;;5001167;28;20303;-34
2023/06/16 06:16:02;;;;;;;6.68;6.05;;;17.60;99.90;;;;;;5000025;28;20191;-38
2023/06/16 06:18:29;;;;;;;6.73;5.60;;;17.80;99.90;;;;;;5000234;28;20184;-38
2023/06/16 06:20:55;;;;;;;6.03;5.50;;;17.90;99.90;;;;;;4993407;28;20197;-39
2023/06/16 06:23:22;;;;;;;6.30;5.70;;;17.90;99.90;;;;;;5014090;28;20197;-36
2023/06/16 06:25:49;;;;;;;7.03;5.70;;;18.00;99.90;;;;;;5005984;28;20213;-41
2023/06/16 06:28:19;;;;;;;6.00;5.40;;;18.10;99.90;;;;;;4987514;28;20191;-38
2023/06/16 06:30:45;;;;;;;6.20;5.57;;;18.20;99.90;;;;;;5000690;28;20219;-38
2023/06/16 06:33:12;;;;;;;5.85;5.15;;;18.30;99.90;;;;;;4987387;28;21263;-39
2023/06/16 06:35:38;;;;;;;6.70;5.80;;;18.40;99.90;;;;;;5009583;28;20195;-37
2023/06/16 06:38:05;;;;;;;6.03;5.53;;;18.60;99.90;;;;;;4988395;28;20198;-38
2023/06/16 06:40:35;;;;;;;7.45;5.68;;;18.70;99.90;;;;;;5013628;28;20183;-36
2023/06/16 06:43:04;;;;;;;8.88;5.85;;;18.90;99.90;;;;;;5019617;28;20183;-38
2023/06/16 06:45:50;;;;;;;6.38;5.78;;;19.00;99.90;;;;;;5009870;28;20188;-37
2023/06/16 06:48:19;;;;;;;6.85;6.15;;;19.20;99.90;;;;;;4996714;28;20215;-36
2023/06/16 06:50:48;;;;;;;6.18;5.57;;;19.30;99.90;;;;;;5008520;28;20217;-39
2023/06/16 06:53:14;;;;;;;7.00;5.35;;;19.40;99.90;;;;;;5006710;28;20263;-39
2023/06/16 06:55:40;;;;;;;7.32;5.82;;;19.70;99.90;;;;;;4992960;28;20211;-35
2023/06/16 06:58:06;;;;;;;6.18;5.63;;;20.00;99.90;;;;;;4990743;28;20203;-37
2023/06/16 07:00:32;;;;;;;6.32;5.70;;;20.00;99.90;;;;;;4989689;28;20190;-38
2023/06/16 07:02:58;;;;;;;7.38;5.65;;;20.10;99.90;;;;;;4990922;28;20219;-36
2023/06/16 07:05:26;;;;;;;5.75;5.00;;;20.40;99.90;;;;;;5001700;28;20182;-40
2023/06/16 07:07:52;;;;;;;6.10;5.60;;;20.60;99.90;;;;;;4976836;28;20219;-38
2023/06/16 07:10:19;;;;;;;5.85;5.35;;;20.90;99.90;;;;;;5006257;28;20274;-38
2023/06/16 07:12:45;;;;;;;5.65;5.13;;;21.10;99.90;;;;;;5006279;28;20228;-40
2023/06/16 07:15:11;;;;;;;8.13;5.30;;;21.30;99.90;;;;;;4992247;28;20230;-39
2023/06/16 07:17:37;;;;;;;6.90;5.45;;;21.40;99.90;;;;;;4979214;28;20212;-39
2023/06/16 07:20:04;;;;;;;7.00;5.50;;;21.50;99.90;;;;;;4993181;28;20176;-38
2023/06/16 07:22:29;;;;;;;5.35;4.85;;;21.60;99.90;;;;;;5005489;28;20187;-35
2023/06/16 07:24:55;;;;;;;5.65;5.15;;;21.70;99.90;;;;;;5016001;28;20187;-36
2023/06/16 07:27:21;;;;;;;5.55;5.05;;;21.80;99.90;;;;;;4992086;28;20249;-38
2023/06/16 07:29:47;;;;;;;5.78;5.10;;;21.90;99.90;;;;;;4992899;28;20190;-40
2023/06/16 07:32:14;;;;;;;5.95;5.35;;;22.00;99.90;;;;;;4989878;28;20199;-37
2023/06/16 07:34:42;;;;;;;5.40;4.90;;;22.10;99.90;;;;;;5025140;28;20179;-35
2023/06/16 07:37:08;;;;;;;7.78;5.80;;;22.30;99.90;;;;;;4981564;28;20218;-37
2023/06/16 07:39:35;;;;;;;7.50;5.47;;;22.30;99.90;;;;;;4996441;28;20191;-37
2023/06/16 07:42:01;;;;;;;7.40;4.78;;;22.40;99.90;;;;;;5012452;28;20191;-39
2023/06/16 07:44:29;;;;;;;5.97;5.43;;;22.60;99.90;;;;;;5008494;28;20251;-38
2023/06/16 07:46:57;;;;;;;5.90;5.15;;;22.60;99.90;;;;;;4987953;28;20207;-38
2023/06/16 07:49:24;;;;;;;6.65;5.55;;;22.70;99.90;;;;;;4973541;28;20196;-38
2023/06/16 07:51:50;;;;;;;6.80;5.55;;;22.70;99.90;;;;;;5013259;28;20215;-39
2023/06/16 07:54:17;;;;;;;7.93;5.78;;;22.80;99.90;;;;;;5009627;28;20191;-42
2023/06/16 07:56:43;;;;;;;5.50;5.00;;;22.80;99.90;;;;;;5017326;28;20208;-40
2023/06/16 07:59:09;;;;;;;9.25;5.28;;;22.90;99.90;;;;;;4991624;28;20184;-40
2023/06/16 08:01:35;;;;;;;6.10;4.75;;;23.10;99.90;;;;;;5010907;28;20191;-39
2023/06/16 08:04:01;;;;;;;5.80;5.05;;;23.30;99.90;;;;;;5011702;28;20233;-35
2023/06/16 08:06:27;;;;;;;4.82;4.43;;;23.60;99.90;;;;;;4985547;28;20220;-38
2023/06/16 08:08:53;;;;;;;5.43;4.93;;;23.90;99.90;;;;;;4995330;28;20216;-40
2023/06/16 08:11:21;;;;;;;5.38;4.82;;;24.00;99.90;;;;;;5003969;28;20253;-41
2023/06/16 08:13:48;;;;;;;4.80;4.40;;;24.20;99.90;;;;;;4991886;28;20183;-42
2023/06/16 08:16:14;;;;;;;4.65;4.15;;;24.30;99.90;;;;;;4985597;28;20298;-41
2023/06/16 08:18:40;;;;;;;5.72;5.00;;;24.60;99.90;;;;;;4995947;28;20309;-41
2023/06/16 08:21:07;;;;;;;5.57;4.85;;;24.60;99.90;;;;;;4994228;28;20278;-38
2023/06/16 08:23:33;;;;;;;6.65;5.10;;;24.70;99.90;;;;;;5000953;28;20188;-41
2023/06/16 08:26:00;;;;;;;5.95;5.05;;;24.90;99.90;;;;;;5009213;28;20190;-40
2023/06/16 08:28:26;;;;;;;5.32;4.82;;;24.90;99.90;;;;;;4983693;28;20199;-42
2023/06/16 08:30:56;;;;;;;6.10;4.57;;;24.80;99.90;;;;;;4993000;28;20216;-43
2023/06/16 08:33:24;;;;;;;5.38;4.40;;;24.80;99.90;;;;;;5017244;28;20230;-42
2023/06/16 08:35:50;;;;;;;4.80;4.40;;;24.80;99.90;;;;;;5011110;28;20190;-41
2023/06/16 08:38:16;;;;;;;4.95;4.50;;;24.90;99.30;;;;;;4996799;28;20171;-39
2023/06/16 08:40:43;;;;;;;6.13;4.40;;;24.80;99.20;;;;;;4990571;28;20184;-41
2023/06/16 08:43:13;;;;;;;5.07;4.40;;;24.80;99.40;;;;;;5011864;28;20179;-40
2023/06/16 08:45:40;;;;;;;8.07;4.82;;;25.10;99.40;;;;;;4995525;28;20225;-39
2023/06/16 08:48:06;;;;;;;7.05;3.92;;;25.30;98.40;;;;;;4979455;28;20211;-40
2023/06/16 08:50:32;;;;;;;4.63;3.75;;;25.60;96.90;;;;;;4986295;28;20176;-39
2023/06/16 08:53:00;;;;;;;6.32;4.25;;;25.90;95.70;;;;;;5011042;28;20188;-42
2023/06/16 08:55:28;;;;;;;6.22;4.00;;;26.20;93.80;;;;;;4995486;28;20279;-41
2023/06/16 08:57:56;;;;;;;4.75;3.97;;;26.30;94.00;;;;;;4991667;28;20294;-42
2023/06/16 09:00:23;;;;;;;6.18;4.38;;;26.50;93.90;;;;;;5011404;28;20179;-42
2023/06/16 09:02:49;;;;;;;4.70;4.03;;;26.80;93.20;;;;;;4989884;28;20186;-42
2023/06/16 09:05:17;;;;;;;4.18;3.88;;;26.90;92.30;;;;;;5008864;28;20183;-41
2023/06/16 09:07:44;;;;;;;5.80;4.07;;;27.20;91.80;;;;;;4996702;28;20223;-41
2023/06/16 09:10:10;;;;;;;5.93;3.92;;;27.30;90.20;;;;;;4987701;28;20267;-43
2023/06/16 09:12:36;;;;;;;5.07;3.90;;;27.20;89.90;;;;;;4994232;28;20207;-43
2023/06/16 09:15:08;;;;;;;5.68;4.03;;;27.10;90.70;;;;;;4994707;28;20188;-42
2023/06/16 09:17:34;;;;;;;4.88;4.35;;;27.20;90.90;;;;;;4987596;28;20239;-41
2023/06/16 09:20:01;;;;;;;6.50;3.78;;;27.40;91.00;;;;;;5010523;28;20179;-40
2023/06/16 09:22:28;;;;;;;6.15;3.90;;;27.40;90.00;;;;;;4998945;28;20278;-39
2023/06/16 09:24:58;;;;;;;8.25;4.18;;;27.30;90.50;;;;;;5007620;28;20197;-40
2023/06/16 09:27:45;;;;;;;7.05;4.05;;;27.40;90.10;;;;;;4987982;28;20217;-44
2023/06/16 09:30:16;;;;;;;7.05;4.20;;;27.50;90.00;;;;;;5008111;28;20190;-41
2023/06/16 09:32:52;;;;;;;5.45;3.90;;;27.80;87.70;;;;;;5007345;28;20207;-39
2023/06/16 09:35:21;;;;;;;8.13;3.90;;;27.90;88.00;;;;;;4976510;28;20187;-41
2023/06/16 09:37:50;;;;;;;3.90;3.50;;;28.10;86.10;;;;;;5020078;28;20704;-40
2023/06/16 09:40:19;;;;;;;6.28;3.50;;;28.30;86.70;;;;;;4994153;28;20188;-41
2023/06/16 09:42:50;;;;;;;5.90;3.83;;;28.40;84.10;;;;;;5017721;28;20191;-42
2023/06/16 09:45:19;;;;;;;5.78;3.90;;;28.50;83.90;;;;;;4991079;28;20187;-42
2023/06/16 09:47:49;;;;;;;5.90;3.53;;;28.50;82.50;;;;;;4989496;28;20303;-42
2023/06/16 09:50:17;;;;;;;5.22;3.80;;;28.80;81.40;;;;;;5009237;28;20218;-39
2023/06/16 09:52:47;;;;;;;5.18;3.97;;;28.70;82.00;;;;;;4995700;28;20222;-39
2023/06/16 09:55:15;;;;;;;4.75;3.65;;;28.70;77.90;;;;;;4999356;28;20183;-40
2023/06/16 09:57:45;;;;;;;4.38;3.42;;;28.80;80.70;;;;;;4989075;28;20200;-41
2023/06/16 10:00:16;;;;;;;4.63;3.67;;;28.90;80.40;;;;;;4990245;28;20188;-43
2023/06/16 10:02:51;;;;;;;5.50;3.97;;;29.00;81.40;;;;;;5007015;28;20200;-40
2023/06/16 10:05:18;;;;;;;4.30;3.67;;;29.00;79.70;;;;;;4990461;28;20196;-42
2023/06/16 10:07:57;;;;;;;12.02;4.20;;;29.30;77.90;;;;;;4984882;28;20215;-41
2023/06/16 10:10:29;;;;;;;6.07;3.53;;;29.60;78.20;;;;;;4989577;28;20202;-41
2023/06/16 10:12:58;;;;;;;4.07;3.63;;;29.40;72.50;;;;;;4993849;28;20211;-43
2023/06/16 10:15:30;;;;;;;4.95;3.78;;;29.20;75.70;;;;;;5002395;28;20187;-40
2023/06/16 10:18:03;;;;;;;4.25;3.70;;;28.90;75.80;;;;;;5009802;28;20241;-41
2023/06/16 10:20:37;;;;;;;5.78;3.70;;;28.20;76.00;;;;;;4984504;28;20183;-41
2023/06/16 10:23:06;;;;;;;6.47;4.03;;;27.70;76.90;;;;;;4992720;28;20180;-41
2023/06/16 10:25:33;;;;;;;4.50;3.92;;;27.40;77.10;;;;;;5007510;28;20179;-41
2023/06/16 10:28:05;;;;;;;7.80;4.30;;;27.10;78.00;;;;;;4992862;28;20203;-42
2023/06/16 10:30:31;;;;;;;4.43;3.90;;;27.10;79.70;;;;;;5009791;28;20266;-40
2023/06/16 10:33:00;;;;;;;4.75;4.00;;;27.20;78.10;;;;;;5009913;28;20306;-42
2023/06/16 10:35:25;;;;;;;5.32;4.13;;;27.40;76.20;;;;;;4981380;28;20275;-40
2023/06/16 10:37:53;;;;;;;4.97;3.50;;;27.80;80.00;;;;;;5006111;28;20295;-43
2023/06/16 10:40:21;;;;;;;4.47;3.95;;;28.10;77.00;;;;;;5009507;28;20186;-40
2023/06/16 10:42:48;;;;;;;4.88;3.90;;;28.20;76.30;;;;;;4992452;28;20187;-40
2023/06/16 10:45:26;;;;;;;4.95;4.15;;;28.00;75.70;;;;;;5000501;28;20238;-40
2023/06/16 10:47:57;;;;;;;5.07;3.70;;;28.30;75.70;;;;;;4992594;28;20199;-41
2023/06/16 10:50:42;;;;;;;8.82;4.18;;;28.50;77.80;;;;;;4992976;28;20183;-40
2023/06/16 10:53:24;;;;;;;7.18;4.00;;;28.70;76.60;;;;;;4991747;28;20188;-42
2023/06/16 10:56:07;;;;;;;4.90;3.72;;;28.70;75.00;;;;;;5001303;28;20180;-43
2023/06/16 10:58:34;;;;;;;6.20;3.90;;;28.90;74.60;;;;;;4987154;28;20183;-43
2023/06/16 11:01:25;;;;;;;4.82;3.92;;;28.80;74.80;;;;;;4992433;28;20190;-40
2023/06/16 11:04:03;;;;;;;6.07;4.57;;;28.90;74.40;;;;;;5005707;28;20204;-42
2023/06/16 11:07:08;;;;;;;4.90;3.80;;;29.30;73.90;;;;;;4992698;28;20214;-43
2023/06/16 11:09:35;;;;;;;5.18;4.18;;;29.60;76.00;;;;;;4991903;28;20214;-41
2023/06/16 11:12:02;;;;;;;5.68;4.00;;;29.60;74.10;;;;;;5005291;28;20306;-42
2023/06/16 11:14:28;;;;;;;4.40;3.95;;;29.40;74.70;;;;;;4994014;28;20191;-40
2023/06/16 11:16:55;;;;;;;5.30;3.42;;;29.10;75.40;;;;;;4993931;28;20199;-42
2023/06/16 11:19:23;;;;;;;5.80;3.80;;;28.60;74.60;;;;;;5012917;28;20175;-41
2023/06/16 11:21:50;;;;;;;6.18;4.00;;;28.20;76.60;;;;;;4990256;28;20191;-40
2023/06/16 11:24:19;;;;;;;6.28;4.05;;;27.80;77.60;;;;;;4993486;28;20270;-43
2023/06/16 11:26:47;;;;;;;3.72;3.42;;;27.50;77.50;;;;;;4999571;28;20265;-42
2023/06/16 11:29:15;;;;;;;4.30;3.90;;;27.30;76.90;;;;;;4998202;28;20278;-42
2023/06/16 11:31:41;;;;;;;4.93;3.92;;;27.70;78.50;;;;;;4983155;28;20211;-41
2023/06/16 11:34:09;;;;;;;5.57;3.80;;;28.20;78.00;;;;;;5011532;28;20249;-42
2023/06/16 11:36:35;;;;;;;4.90;4.03;;;28.50;76.60;;;;;;4995199;28;20743;-43
2023/06/16 11:39:04;;;;;;;6.10;3.92;;;28.80;74.60;;;;;;5001774;28;20180;-41
2023/06/16 11:41:31;;;;;;;5.00;4.60;;;28.80;72.70;;;;;;5012882;28;20183;-41
2023/06/16 11:43:58;;;;;;;5.40;4.53;;;28.70;73.70;;;;;;5012911;28;20193;-42
2023/06/16 11:46:28;;;;;;;4.93;4.45;;;28.60;75.20;;;;;;5011828;28;20214;-42
2023/06/16 11:48:56;;;;;;;7.05;3.90;;;28.40;75.10;;;;;;5012460;28;20194;-43
2023/06/16 11:51:24;;;;;;;6.30;4.38;;;28.10;76.50;;;;;;4989036;28;20211;-41
2023/06/16 11:53:51;;;;;;;4.40;3.80;;;27.70;76.30;;;;;;5002195;28;20180;-42
2023/06/16 11:56:25;;;;;;;7.05;5.70;;;27.50;77.00;;;;;;5001288;28;20200;-42
2023/06/16 11:58:53;;;;;;;6.00;4.65;;;27.20;77.40;;;;;;5001836;28;20219;-40
2023/06/16 12:01:22;;;;;;;8.05;4.13;;;27.10;77.10;;;;;;4993379;28;20183;-42
2023/06/16 12:03:59;;;;;;;4.55;4.15;;;27.20;78.20;;;;;;5003881;28;20180;-43
2023/06/16 12:06:29;;;;;;;4.32;3.90;;;27.70;76.70;;;;;;4991724;28;20223;-42
2023/06/16 12:08:59;;;;;;;5.40;4.20;;;28.20;75.30;;;;;;5012105;28;20266;-42
2023/06/16 12:11:30;;;;;;;4.78;4.35;;;28.70;73.90;;;;;;5023665;28;20212;-41
2023/06/16 12:13:57;;;;;;;8.55;4.35;;;29.00;74.30;;;;;;4985922;28;20691;-42
2023/06/16 12:16:24;;;;;;;4.68;4.07;;;28.90;74.10;;;;;;4991863;28;20231;-43
2023/06/16 12:18:51;;;;;;;5.85;4.20;;;29.00;74.00;;;;;;4994053;28;20214;-43
2023/06/16 12:21:22;;;;;;;8.68;4.40;;;29.00;73.90;;;;;;4990879;28;20218;-43
2023/06/16 12:23:54;;;;;;;4.82;3.88;;;29.40;73.70;;;;;;5005782;28;20274;-42
2023/06/16 12:26:31;;;;;;;7.75;4.05;;;29.20;70.80;;;;;;4999854;28;20207;-43
2023/06/16 12:28:58;;;;;;;4.95;3.95;;;29.50;70.60;;;;;;5015577;28;20183;-43
2023/06/16 12:31:31;;;;;;;5.13;4.07;;;29.70;71.30;;;;;;5008260;28;20211;-41
2023/06/16 12:33:58;;;;;;;7.00;4.60;;;29.60;71.10;;;;;;5015061;28;20252;-43
2023/06/16 12:36:24;;;;;;;6.03;4.57;;;29.60;71.10;;;;;;4985945;28;20203;-43
2023/06/16 12:38:56;;;;;;;5.97;4.00;;;29.70;71.70;;;;;;4992935;28;20302;-43
2023/06/16 12:41:22;;;;;;;4.70;4.18;;;29.90;71.70;;;;;;4991208;28;20242;-43
2023/06/16 12:43:52;;;;;;;7.50;4.38;;;29.70;71.80;;;;;;4999098;28;20171;-43
2023/06/16 12:46:20;;;;;;;5.50;4.30;;;29.80;72.10;;;;;;5006504;28;20208;-43
2023/06/16 12:48:55;;;;;;;5.05;4.03;;;29.90;70.40;;;;;;5007234;28;20195;-42
2023/06/16 12:51:22;;;;;;;4.60;4.20;;;30.30;71.40;;;;;;5003873;28;20215;-41
2023/06/16 12:53:48;;;;;;;4.32;3.92;;;30.30;70.40;;;;;;5010335;28;20188;-44